createdAt,value
2023-03-22T00:00:58.995Z,9.12
2023-03-22T00:01:59.135Z,9.12
2023-03-22T00:02:59.324Z,9.04
2023-03-22T00:03:59.487Z,9.04
2023-03-22T00:04:59.594Z,9.04
2023-03-22T00:05:59.747Z,9.04
2023-03-22T00:06:59.897Z,9.04
2023-03-22T00:08:00.043Z,9.04
2023-03-22T00:09:00.202Z,8.88
2023-03-22T00:10:00.344Z,8.72
2023-03-22T00:11:00.496Z,8.8
2023-03-22T00:12:00.654Z,8.72
2023-03-22T00:13:00.753Z,8.32
2023-03-22T00:14:00.868Z,8.4
2023-03-22T00:15:00.959Z,8.48
2023-03-22T00:16:01.152Z,8.72
2023-03-22T00:17:01.211Z,8.48
2023-03-22T00:18:01.357Z,8.4
2023-03-22T00:19:01.510Z,8.32
2023-03-22T00:20:01.676Z,8.72
2023-03-22T00:21:01.841Z,8.48
2023-03-22T00:22:01.966Z,8.4
2023-03-22T00:23:02.111Z,8.08
2023-03-22T00:24:02.328Z,8
2023-03-22T00:25:02.430Z,8
2023-03-22T00:26:02.584Z,8.08
2023-03-22T00:27:02.721Z,8.08
2023-03-22T00:28:02.878Z,7.92
2023-03-22T00:29:03.026Z,7.84
2023-03-22T00:30:03.188Z,7.92
2023-03-22T00:31:03.296Z,8.48
2023-03-22T00:32:03.379Z,8.32
2023-03-22T00:33:03.536Z,8.32
2023-03-22T00:34:03.724Z,8.48
2023-03-22T00:35:03.841Z,8.24
2023-03-22T00:36:04.006Z,8.24
2023-03-22T00:37:04.140Z,8
2023-03-22T00:38:04.296Z,8
2023-03-22T00:39:04.449Z,8
2023-03-22T00:40:04.604Z,8
2023-03-22T00:41:04.749Z,8.24
2023-03-22T00:42:04.860Z,8.08
2023-03-22T00:43:05.000Z,8.08
2023-03-22T00:44:05.153Z,8.639999
2023-03-22T00:45:05.306Z,8.4
2023-03-22T00:46:05.528Z,8.32
2023-03-22T00:47:05.604Z,8
2023-03-22T00:48:06.712Z,7.92
2023-03-22T00:49:06.922Z,8.08
2023-03-22T00:50:06.342Z,7.84
2023-03-22T00:51:06.144Z,7.52
2023-03-22T00:52:06.241Z,7.84
2023-03-22T00:53:06.367Z,7.84
2023-03-22T00:54:06.537Z,8
2023-03-22T00:55:06.703Z,8.24
2023-03-22T00:56:07.224Z,7.92
2023-03-22T00:57:06.995Z,7.6
2023-03-22T00:58:07.115Z,7.2
2023-03-22T00:59:07.329Z,6.88
2023-03-22T01:00:07.433Z,7.28
2023-03-22T01:01:07.618Z,7.68
2023-03-22T01:02:07.725Z,7.84
2023-03-22T01:03:07.907Z,7.68
2023-03-22T01:04:08.040Z,7.84
2023-03-22T01:05:08.147Z,7.44
2023-03-22T01:06:08.237Z,7.28
2023-03-22T01:07:08.335Z,7.44
2023-03-22T01:08:08.437Z,7.6
2023-03-22T01:09:08.585Z,7.84
2023-03-22T01:10:08.690Z,8
2023-03-22T01:11:08.842Z,7.68
2023-03-22T01:12:09.002Z,7.68
2023-03-22T01:13:09.108Z,7.68
2023-03-22T01:14:09.259Z,7.52
2023-03-22T01:15:09.396Z,7.6
2023-03-22T01:16:09.614Z,7.52
2023-03-22T01:17:09.648Z,7.44
2023-03-22T01:18:09.799Z,7.28
2023-03-22T01:19:09.955Z,7.12
2023-03-22T01:20:10.053Z,7.2
2023-03-22T01:21:10.208Z,7.6
2023-03-22T01:22:10.352Z,7.52
2023-03-22T01:23:10.506Z,7.52
2023-03-22T01:24:10.672Z,7.44
2023-03-22T01:25:10.808Z,7.28
2023-03-22T01:26:10.964Z,7.28
2023-03-22T01:27:11.108Z,7.2
2023-03-22T01:28:11.271Z,7.28
2023-03-22T01:29:11.419Z,7.2
2023-03-22T01:30:11.568Z,7.2
2023-03-22T01:31:11.746Z,7.2
2023-03-22T01:32:11.872Z,7.44
2023-03-22T01:33:12.025Z,7.6
2023-03-22T01:34:12.204Z,7.28
2023-03-22T01:35:12.277Z,7.12
2023-03-22T01:36:12.429Z,7.12
2023-03-22T01:37:12.596Z,7.04
2023-03-22T01:38:12.730Z,7.12
2023-03-22T01:39:12.841Z,7.44
2023-03-22T01:40:12.988Z,7.6
2023-03-22T01:41:13.085Z,7.12
2023-03-22T01:42:13.238Z,7.68
2023-03-22T01:43:13.399Z,7.52
2023-03-22T01:44:13.558Z,7.52
2023-03-22T01:45:13.696Z,7.28
2023-03-22T01:46:13.857Z,7.12
2023-03-22T01:47:14.021Z,7.04
2023-03-22T01:48:14.284Z,7.04
2023-03-22T01:49:14.363Z,7.2
2023-03-22T01:50:14.455Z,7.12
2023-03-22T01:51:14.602Z,6.88
2023-03-22T01:52:14.706Z,6.64
2023-03-22T01:53:14.859Z,6.48
2023-03-22T01:54:15.013Z,6.64
2023-03-22T01:55:15.162Z,6.88
2023-03-22T01:56:15.317Z,6.48
2023-03-22T01:57:15.464Z,6.4
2023-03-22T01:58:15.617Z,7.04
2023-03-22T01:59:15.714Z,6.88
2023-03-22T02:00:16.066Z,6.72
2023-03-22T02:01:16.097Z,6.4
2023-03-22T02:02:16.188Z,6.4
2023-03-22T02:03:16.321Z,6.64
2023-03-22T02:04:16.470Z,6.24
2023-03-22T02:05:16.625Z,6.08
2023-03-22T02:06:16.785Z,6
2023-03-22T02:07:16.887Z,6.08
2023-03-22T02:08:17.029Z,5.92
2023-03-22T02:09:17.184Z,6
2023-03-22T02:10:17.288Z,6.24
2023-03-22T02:11:17.434Z,6.24
2023-03-22T02:12:17.583Z,6
2023-03-22T02:13:17.739Z,5.92
2023-03-22T02:14:17.845Z,5.84
2023-03-22T02:15:17.986Z,5.52
2023-03-22T02:16:18.129Z,5.68
2023-03-22T02:17:18.242Z,5.84
2023-03-22T02:18:18.392Z,5.92
2023-03-22T02:19:18.553Z,5.52
2023-03-22T02:20:18.728Z,5.92
2023-03-22T02:21:18.851Z,5.84
2023-03-22T02:22:19.002Z,6.08
2023-03-22T02:23:19.153Z,6.4
2023-03-22T02:24:19.313Z,6.32
2023-03-22T02:25:19.405Z,6
2023-03-22T02:26:19.578Z,6.08
2023-03-22T02:27:19.715Z,6
2023-03-22T02:28:19.814Z,6.48
2023-03-22T02:29:19.961Z,6.48
2023-03-22T02:30:20.096Z,6.48
2023-03-22T02:31:20.237Z,6.48
2023-03-22T02:32:20.368Z,6.48
2023-03-22T02:33:20.522Z,6.32
2023-03-22T02:34:20.670Z,6.4
2023-03-22T02:35:20.883Z,6.32
2023-03-22T02:36:20.971Z,6.4
2023-03-22T02:37:21.085Z,6.24
2023-03-22T02:38:21.226Z,6.24
2023-03-22T02:39:21.351Z,6
2023-03-22T02:40:21.480Z,6
2023-03-22T02:41:21.591Z,5.92
2023-03-22T02:42:21.767Z,5.92
2023-03-22T02:43:21.880Z,5.92
2023-03-22T02:44:22.034Z,6
2023-03-22T02:45:22.191Z,5.92
2023-03-22T02:46:22.420Z,5.92
2023-03-22T02:47:22.489Z,5.92
2023-03-22T02:48:22.666Z,5.92
2023-03-22T02:49:22.739Z,5.84
2023-03-22T02:50:22.900Z,5.52
2023-03-22T02:51:23.047Z,5.68
2023-03-22T02:52:23.198Z,5.6
2023-03-22T02:53:23.295Z,5.52
2023-03-22T02:54:23.455Z,5.52
2023-03-22T02:55:23.605Z,5.44
2023-03-22T02:56:23.753Z,5.44
2023-03-22T02:57:23.905Z,5.52
2023-03-22T02:58:24.055Z,5.52
2023-03-22T02:59:24.206Z,5.52
2023-03-22T03:00:24.356Z,5.52
2023-03-22T03:01:24.578Z,5.6
2023-03-22T03:02:24.713Z,5.52
2023-03-22T03:03:24.814Z,5.44
2023-03-22T03:04:24.965Z,5.44
2023-03-22T03:05:25.128Z,5.28
2023-03-22T03:06:25.268Z,5.28
2023-03-22T03:07:25.416Z,5.44
2023-03-22T03:08:25.582Z,5.44
2023-03-22T03:09:25.734Z,5.52
2023-03-22T03:10:25.886Z,5.52
2023-03-22T03:11:25.986Z,5.6
2023-03-22T03:12:26.128Z,5.28
2023-03-22T03:13:26.288Z,5.2
2023-03-22T03:14:26.479Z,5.04
2023-03-22T03:15:26.586Z,5.12
2023-03-22T03:16:26.808Z,5.04
2023-03-22T03:17:26.829Z,4.8
2023-03-22T03:18:26.987Z,4.72
2023-03-22T03:19:27.137Z,5.04
2023-03-22T03:20:27.290Z,5.04
2023-03-22T03:21:27.436Z,5.2
2023-03-22T03:22:27.592Z,5.44
2023-03-22T03:23:27.738Z,5.12
2023-03-22T03:24:27.899Z,4.72
2023-03-22T03:25:28.050Z,4.64
2023-03-22T03:26:28.530Z,4.72
2023-03-22T03:27:28.349Z,5.04
2023-03-22T03:28:28.505Z,4.8
2023-03-22T03:29:28.666Z,4.72
2023-03-22T03:30:28.779Z,4.88
2023-03-22T03:31:28.914Z,4.8
2023-03-22T03:32:29.016Z,5.04
2023-03-22T03:33:29.168Z,4.8
2023-03-22T03:34:29.324Z,5.04
2023-03-22T03:35:29.455Z,5.12
2023-03-22T03:36:29.513Z,5.52
2023-03-22T03:37:29.614Z,5.92
2023-03-22T03:38:29.713Z,5.92
2023-03-22T03:39:29.871Z,6.24
2023-03-22T03:40:29.970Z,6.32
2023-03-22T03:41:30.072Z,6.32
2023-03-22T03:42:30.242Z,6.64
2023-03-22T03:43:30.381Z,6.88
2023-03-22T03:44:30.757Z,6.08
2023-03-22T03:45:31.067Z,6.08
2023-03-22T03:46:30.792Z,6.4
2023-03-22T03:47:30.890Z,6.48
2023-03-22T03:48:31.037Z,6.4
2023-03-22T03:49:31.148Z,6.48
2023-03-22T03:50:31.236Z,6.88
2023-03-22T03:51:31.384Z,7.12
2023-03-22T03:52:31.549Z,7.2
2023-03-22T03:53:31.691Z,6.88
2023-03-22T03:54:31.843Z,7.04
2023-03-22T03:55:32.004Z,7.12
2023-03-22T03:56:32.142Z,7.52
2023-03-22T03:57:32.297Z,7.28
2023-03-22T03:58:32.449Z,7.6
2023-03-22T03:59:32.599Z,7.52
2023-03-22T04:00:32.755Z,7.28
2023-03-22T04:01:32.861Z,7.28
2023-03-22T04:02:33.052Z,7.12
2023-03-22T04:03:33.163Z,7.2
2023-03-22T04:04:33.319Z,7.2
2023-03-22T04:05:33.466Z,7.28
2023-03-22T04:06:33.609Z,7.2
2023-03-22T04:07:33.715Z,7.28
2023-03-22T04:08:33.812Z,7.52
2023-03-22T04:09:33.968Z,7.6
2023-03-22T04:10:34.121Z,7.44
2023-03-22T04:11:34.223Z,7.6
2023-03-22T04:12:34.327Z,7.6
2023-03-22T04:13:34.430Z,7.28
2023-03-22T04:14:34.586Z,7.2
2023-03-22T04:15:34.747Z,7.04
2023-03-22T04:16:34.965Z,7.2
2023-03-22T04:17:35.037Z,6.88
2023-03-22T04:18:35.192Z,7.2
2023-03-22T04:19:35.343Z,7.28
2023-03-22T04:20:35.500Z,7.28
2023-03-22T04:21:35.639Z,6.88
2023-03-22T04:22:35.790Z,6.72
2023-03-22T04:23:35.896Z,6.88
2023-03-22T04:24:36.039Z,6.88
2023-03-22T04:25:36.190Z,6.72
2023-03-22T04:26:36.344Z,7.12
2023-03-22T04:27:36.492Z,7.04
2023-03-22T04:28:36.641Z,7.04
2023-03-22T04:29:36.797Z,6.88
2023-03-22T04:30:37.067Z,7.04
2023-03-22T04:31:37.057Z,6.88
2023-03-22T04:32:37.150Z,6.88
2023-03-22T04:33:37.302Z,7.04
2023-03-22T04:34:37.451Z,7.04
2023-03-22T04:35:37.642Z,6.8
2023-03-22T04:36:37.761Z,7.04
2023-03-22T04:37:37.912Z,7.04
2023-03-22T04:38:38.058Z,6.88
2023-03-22T04:39:38.212Z,7.28
2023-03-22T04:40:38.681Z,7.44
2023-03-22T04:41:38.463Z,7.44
2023-03-22T04:42:38.616Z,7.12
2023-03-22T04:43:38.766Z,7.04
2023-03-22T04:44:38.924Z,7.12
2023-03-22T04:45:39.068Z,7.44
2023-03-22T04:46:39.233Z,7.6
2023-03-22T04:47:39.330Z,7.6
2023-03-22T04:48:39.481Z,7.6
2023-03-22T04:49:39.651Z,7.44
2023-03-22T04:50:39.935Z,7.52
2023-03-22T04:51:39.930Z,7.44
2023-03-22T04:52:40.084Z,7.44
2023-03-22T04:53:40.235Z,7.28
2023-03-22T04:54:40.402Z,7.2
2023-03-22T04:55:40.536Z,7.2
2023-03-22T04:56:40.687Z,7.12
2023-03-22T04:57:40.841Z,7.04
2023-03-22T04:58:40.987Z,7.28
2023-03-22T04:59:41.143Z,7.68
2023-03-22T05:00:41.575Z,7.84
2023-03-22T05:01:41.442Z,7.84
2023-03-22T05:02:41.783Z,7.68
2023-03-22T05:03:41.753Z,7.6
2023-03-22T05:04:41.896Z,7.6
2023-03-22T05:05:42.003Z,7.6
2023-03-22T05:06:42.148Z,7.68
2023-03-22T05:07:42.307Z,7.92
2023-03-22T05:08:42.498Z,7.92
2023-03-22T05:09:42.606Z,7.92
2023-03-22T05:10:42.762Z,7.92
2023-03-22T05:11:42.859Z,8
2023-03-22T05:12:43.009Z,7.92
2023-03-22T05:13:43.161Z,7.92
2023-03-22T05:14:43.361Z,7.84
2023-03-22T05:15:43.492Z,7.68
2023-03-22T05:16:43.566Z,7.84
2023-03-22T05:17:43.715Z,7.92
2023-03-22T05:18:43.872Z,8
2023-03-22T05:19:44.026Z,8
2023-03-22T05:20:44.171Z,8
2023-03-22T05:21:44.321Z,8.08
2023-03-22T05:22:44.472Z,8.08
2023-03-22T05:23:44.625Z,8.24
2023-03-22T05:24:44.726Z,8.24
2023-03-22T05:25:44.883Z,8.24
2023-03-22T05:26:45.002Z,8.24
2023-03-22T05:27:45.139Z,8.24
2023-03-22T05:28:45.283Z,8.08
2023-03-22T05:29:45.393Z,8.08
2023-03-22T05:30:45.541Z,8.24
2023-03-22T05:31:45.686Z,8.08
2023-03-22T05:32:45.856Z,8
2023-03-22T05:33:45.989Z,8.08
2023-03-22T05:34:46.142Z,8.24
2023-03-22T05:35:46.325Z,8.24
2023-03-22T05:36:46.447Z,8.08
2023-03-22T05:37:46.601Z,8.32
2023-03-22T05:38:46.782Z,8.24
2023-03-22T05:39:46.905Z,8.24
2023-03-22T05:40:47.058Z,8.24
2023-03-22T05:41:47.171Z,8.24
2023-03-22T05:42:47.260Z,8.32
2023-03-22T05:43:47.426Z,8.32
2023-03-22T05:44:47.562Z,8.32
2023-03-22T05:45:47.720Z,8.32
2023-03-22T05:46:47.897Z,8.48
2023-03-22T05:47:48.037Z,8.4
2023-03-22T05:48:48.173Z,8.48
2023-03-22T05:49:48.674Z,8.48
2023-03-22T05:50:48.820Z,8.48
2023-03-22T05:51:48.621Z,8.4
2023-03-22T05:52:48.741Z,8.4
2023-03-22T05:53:48.836Z,8.24
2023-03-22T05:54:48.978Z,8.32
2023-03-22T05:55:49.092Z,8.32
2023-03-22T05:56:49.572Z,8.32
2023-03-22T05:57:49.339Z,8.48
2023-03-22T05:58:49.494Z,8.48
2023-03-22T05:59:49.893Z,8.48
2023-03-22T06:00:49.696Z,8.48
2023-03-22T06:01:49.875Z,8.639999
2023-03-22T06:02:50.047Z,8.4
2023-03-22T06:03:50.151Z,8.48
2023-03-22T06:04:50.313Z,8.639999
2023-03-22T06:05:50.465Z,8.639999
2023-03-22T06:06:50.602Z,8.72
2023-03-22T06:07:50.706Z,8.639999
2023-03-22T06:08:50.898Z,8.48
2023-03-22T06:09:51.010Z,8.639999
2023-03-22T06:10:51.167Z,8.72
2023-03-22T06:11:51.324Z,8.8
2023-03-22T06:12:51.467Z,8.8
2023-03-22T06:13:51.611Z,8.72
2023-03-22T06:14:51.765Z,8.8
2023-03-22T06:15:51.914Z,8.72
2023-03-22T06:16:52.107Z,8.8
2023-03-22T06:17:52.191Z,8.88
2023-03-22T06:18:52.419Z,8.88
2023-03-22T06:19:53.219Z,8.88
2023-03-22T06:20:52.672Z,8.8
2023-03-22T06:21:52.821Z,9.04
2023-03-22T06:22:52.975Z,9.12
2023-03-22T06:23:53.094Z,9.12
2023-03-22T06:24:53.277Z,9.04
2023-03-22T06:25:53.330Z,9.12
2023-03-22T06:26:53.485Z,9.12
2023-03-22T06:27:53.638Z,9.12
2023-03-22T06:28:53.783Z,9.12
2023-03-22T06:29:53.931Z,9.12
2023-03-22T06:30:54.152Z,9.12
2023-03-22T06:31:54.236Z,9.2
2023-03-22T06:32:54.390Z,9.2
2023-03-22T06:33:55.875Z,9.28
2023-03-22T06:34:54.695Z,9.28
2023-03-22T06:35:54.861Z,9.28
2023-03-22T06:36:54.943Z,9.36
2023-03-22T06:37:55.055Z,9.36
2023-03-22T06:38:55.324Z,9.36
2023-03-22T06:39:55.495Z,9.28
2023-03-22T06:40:55.647Z,9.28
2023-03-22T06:41:56.151Z,9.28
2023-03-22T06:42:55.943Z,9.28
2023-03-22T06:43:56.091Z,9.36
2023-03-22T06:44:56.406Z,9.36
2023-03-22T06:45:56.749Z,9.36
2023-03-22T06:46:56.498Z,9.52
2023-03-22T06:47:57.066Z,9.599999
2023-03-22T06:48:56.771Z,9.599999
2023-03-22T06:49:56.905Z,9.599999
2023-03-22T06:50:57.069Z,9.599999
2023-03-22T06:51:57.210Z,9.599999
2023-03-22T06:52:57.691Z,9.599999
2023-03-22T06:53:57.805Z,9.84
2023-03-22T06:54:57.947Z,9.679999
2023-03-22T06:55:57.778Z,9.679999
2023-03-22T06:56:57.862Z,9.599999
2023-03-22T06:57:58.018Z,9.599999
2023-03-22T06:58:58.160Z,9.599999
2023-03-22T06:59:58.269Z,9.599999
2023-03-22T07:00:58.546Z,9.599999
2023-03-22T07:01:58.570Z,9.679999
2023-03-22T07:02:58.723Z,9.679999
2023-03-22T07:03:58.844Z,9.599999
2023-03-22T07:04:58.977Z,9.679999
2023-03-22T07:05:59.128Z,9.679999
2023-03-22T07:06:59.243Z,9.599999
2023-03-22T07:07:59.399Z,9.599999
2023-03-22T07:08:59.542Z,9.52
2023-03-22T07:09:59.690Z,9.52
2023-03-22T07:10:59.788Z,9.599999
2023-03-22T07:11:59.946Z,9.84
2023-03-22T07:13:00.044Z,9.84
2023-03-22T07:14:00.200Z,10
2023-03-22T07:15:00.348Z,10.08
2023-03-22T07:16:00.613Z,10.4
2023-03-22T07:17:00.661Z,10.48
2023-03-22T07:18:00.755Z,11.2
2023-03-22T07:19:00.898Z,11.84
2023-03-22T07:20:01.086Z,12.24
2023-03-22T07:21:01.155Z,12.719999
2023-03-22T07:22:01.311Z,13.679999
2023-03-22T07:23:01.415Z,13.52
2023-03-22T07:24:01.557Z,13.92
2023-03-22T07:25:01.979Z,14.4
2023-03-22T07:26:01.889Z,13.92
2023-03-22T07:27:02.080Z,14.32
2023-03-22T07:28:02.222Z,15.12
2023-03-22T07:29:02.416Z,15.04
2023-03-22T07:30:02.567Z,15.52
2023-03-22T07:31:02.728Z,16.64
2023-03-22T07:32:02.906Z,16.64
2023-03-22T07:33:03.020Z,16.08
2023-03-22T07:34:03.175Z,16.32
2023-03-22T07:35:03.280Z,17.12
2023-03-22T07:36:03.431Z,17.04
2023-03-22T07:37:03.584Z,16.88
2023-03-22T07:38:03.773Z,17.44
2023-03-22T07:39:03.884Z,17.52
2023-03-22T07:40:03.986Z,18.4
2023-03-22T07:41:04.145Z,17.76
2023-03-22T07:42:04.245Z,17.6
2023-03-22T07:43:04.356Z,18.32
2023-03-22T07:44:16.846Z,17.04
2023-03-22T07:45:04.632Z,18.8
2023-03-22T07:46:04.746Z,16.64
2023-03-22T07:47:04.864Z,16.88
2023-03-22T07:48:05.054Z,16.88
2023-03-22T07:49:05.167Z,18.64
2023-03-22T07:50:05.302Z,16.64
2023-03-22T07:51:05.455Z,17.44
2023-03-22T07:52:05.630Z,17.04
2023-03-22T07:53:05.770Z,17.12
2023-03-22T07:54:07.680Z,16.88
2023-03-22T07:55:06.018Z,17.28
2023-03-22T07:56:06.167Z,17.92
2023-03-22T07:57:06.320Z,18.48
2023-03-22T07:58:06.469Z,17.68
2023-03-22T07:59:06.812Z,16.48
2023-03-22T08:00:06.769Z,17.2
2023-03-22T08:01:06.870Z,17.12
2023-03-22T08:02:07.061Z,16.8
2023-03-22T08:03:07.206Z,17.92
2023-03-22T08:04:07.352Z,17.6
2023-03-22T08:05:07.489Z,18.24
2023-03-22T08:06:07.682Z,18.32
2023-03-22T08:07:07.780Z,17.2
2023-03-22T08:08:07.938Z,16.64
2023-03-22T08:09:08.088Z,17.2
2023-03-22T08:10:08.240Z,17.44
2023-03-22T08:11:08.399Z,15.839999
2023-03-22T08:12:08.494Z,17.04
2023-03-22T08:13:08.594Z,17.12
2023-03-22T08:14:08.752Z,17.52
2023-03-22T08:15:08.892Z,16.64
2023-03-22T08:16:09.007Z,17.92
2023-03-22T08:17:09.045Z,16.88
2023-03-22T08:18:09.197Z,16.24
2023-03-22T08:19:09.307Z,17.44
2023-03-22T08:20:09.450Z,17.04
2023-03-22T08:21:09.600Z,17.04
2023-03-22T08:22:09.754Z,16.48
2023-03-22T08:23:09.908Z,16.64
2023-03-22T08:24:10.059Z,16.32
2023-03-22T08:25:10.219Z,17.04
2023-03-22T08:26:10.376Z,17.04
2023-03-22T08:27:10.471Z,15.28
2023-03-22T08:28:10.611Z,16
2023-03-22T08:29:10.769Z,16.8
2023-03-22T08:30:10.932Z,17.28
2023-03-22T08:31:12.732Z,16.72
2023-03-22T08:32:11.233Z,17.68
2023-03-22T08:33:11.286Z,17.52
2023-03-22T08:34:11.420Z,18.72
2023-03-22T08:35:11.575Z,17.6
2023-03-22T08:36:11.723Z,18.32
2023-03-22T08:37:11.873Z,19.2
2023-03-22T08:38:12.043Z,19.2
2023-03-22T08:39:12.182Z,19.76
2023-03-22T08:40:12.409Z,19.6
2023-03-22T08:41:12.486Z,18.4
2023-03-22T08:42:12.643Z,18.48
2023-03-22T08:43:12.786Z,19.92
2023-03-22T08:44:12.965Z,18.88
2023-03-22T08:45:13.118Z,19.52
2023-03-22T08:46:13.296Z,19.28
2023-03-22T08:47:13.341Z,19.52
2023-03-22T08:48:13.515Z,18.72
2023-03-22T08:49:13.645Z,19.2
2023-03-22T08:50:13.797Z,19.52
2023-03-22T08:51:13.949Z,19.2
2023-03-22T08:52:14.067Z,19.2
2023-03-22T08:53:14.198Z,18.08
2023-03-22T08:54:14.352Z,18.24
2023-03-22T08:55:14.461Z,18.64
2023-03-22T08:56:14.604Z,18.88
2023-03-22T08:57:14.753Z,19.6
2023-03-22T08:58:14.906Z,18.88
2023-03-22T08:59:15.056Z,18.72
2023-03-22T09:00:15.166Z,18.72
2023-03-22T09:01:15.393Z,17.44
2023-03-22T09:02:15.453Z,16.72
2023-03-22T09:03:15.527Z,17.12
2023-03-22T09:04:15.673Z,17.6
2023-03-22T09:05:15.815Z,17.76
2023-03-22T09:06:15.977Z,17.2
2023-03-22T09:07:16.083Z,16.88
2023-03-22T09:08:19.337Z,17.2
2023-03-22T09:09:16.372Z,17.6
2023-03-22T09:10:16.542Z,17.28
2023-03-22T09:11:17.865Z,17.12
2023-03-22T09:12:16.789Z,16.72
2023-03-22T09:13:16.950Z,16.08
2023-03-22T09:14:17.100Z,16.8
2023-03-22T09:15:17.197Z,18
2023-03-22T09:16:17.407Z,18
2023-03-22T09:17:17.384Z,17.12
2023-03-22T09:18:17.535Z,18.32
2023-03-22T09:19:17.715Z,18.8
2023-03-22T09:20:17.852Z,18.64
2023-03-22T09:21:17.986Z,17.52
2023-03-22T09:22:18.139Z,18.72
2023-03-22T09:23:18.294Z,19.28
2023-03-22T09:24:18.447Z,18.48
2023-03-22T09:25:18.594Z,18
2023-03-22T09:26:18.761Z,19.2
2023-03-22T09:27:18.921Z,19.44
2023-03-22T09:28:19.126Z,19.44
2023-03-22T09:29:19.204Z,19.12
2023-03-22T09:30:19.353Z,18.64
2023-03-22T09:31:20.485Z,18.48
2023-03-22T09:32:19.605Z,18.4
2023-03-22T09:33:19.756Z,18.4
2023-03-22T09:34:19.908Z,20
2023-03-22T09:35:20.128Z,18.72
2023-03-22T09:36:20.210Z,18.8
2023-03-22T09:37:20.363Z,18.08
2023-03-22T09:38:20.471Z,18.48
2023-03-22T09:39:20.624Z,18.8
2023-03-22T09:40:20.772Z,18.4
2023-03-22T09:41:20.942Z,18.48
2023-03-22T09:42:21.072Z,19.12
2023-03-22T09:43:21.223Z,19.52
2023-03-22T09:44:21.372Z,20.48
2023-03-22T09:45:21.536Z,18.4
2023-03-22T09:46:21.703Z,18.72
2023-03-22T09:47:21.795Z,18.72
2023-03-22T09:48:21.931Z,18.48
2023-03-22T09:49:22.069Z,18.08
2023-03-22T09:50:22.280Z,18.32
2023-03-22T09:51:22.345Z,17.6
2023-03-22T09:52:22.509Z,17.68
2023-03-22T09:53:22.585Z,17.6
2023-03-22T09:54:22.740Z,18.4
2023-03-22T09:55:22.893Z,19.12
2023-03-22T09:56:23.045Z,18.32
2023-03-22T09:57:23.190Z,18.32
2023-03-22T09:58:23.349Z,18.64
2023-03-22T09:59:23.445Z,17.92
2023-03-22T10:00:23.640Z,18.48
2023-03-22T10:01:23.956Z,19.2
2023-03-22T10:02:23.906Z,20.4
2023-03-22T10:03:24.002Z,20.72
2023-03-22T10:04:24.326Z,20.24
2023-03-22T10:05:24.307Z,20.72
2023-03-22T10:06:24.414Z,19.92
2023-03-22T10:07:24.560Z,18.88
2023-03-22T10:08:24.722Z,20.24
2023-03-22T10:09:24.883Z,20.88
2023-03-22T10:10:25.017Z,20.8
2023-03-22T10:11:25.167Z,21.2
2023-03-22T10:12:25.323Z,21.2
2023-03-22T10:13:25.468Z,21.28
2023-03-22T10:14:25.620Z,21.2
2023-03-22T10:15:25.772Z,21.2
2023-03-22T10:16:25.979Z,20.4
2023-03-22T10:17:26.075Z,19.76
2023-03-22T10:18:26.171Z,21.04
2023-03-22T10:19:26.335Z,22.08
2023-03-22T10:20:26.482Z,22.64
2023-03-22T10:21:26.645Z,21.52
2023-03-22T10:22:26.796Z,20.72
2023-03-22T10:23:26.930Z,22.24
2023-03-22T10:24:27.088Z,20
2023-03-22T10:25:27.239Z,20
2023-03-22T10:26:27.395Z,19.52
2023-03-22T10:27:27.534Z,20.8
2023-03-22T10:28:27.690Z,21.52
2023-03-22T10:29:27.807Z,21.52
2023-03-22T10:30:27.951Z,19.6
2023-03-22T10:31:28.126Z,19.12
2023-03-22T10:32:28.204Z,18.72
2023-03-22T10:33:28.361Z,19.44
2023-03-22T10:34:28.460Z,20.72
2023-03-22T10:35:28.658Z,20.24
2023-03-22T10:36:28.704Z,21.28
2023-03-22T10:37:28.857Z,20.88
2023-03-22T10:38:28.956Z,20.72
2023-03-22T10:39:29.057Z,18.64
2023-03-22T10:40:29.212Z,19.28
2023-03-22T10:41:29.319Z,18.88
2023-03-22T10:42:29.459Z,18.72
2023-03-22T10:43:29.620Z,19.2
2023-03-22T10:44:29.726Z,20.48
2023-03-22T10:45:29.840Z,20.72
2023-03-22T10:46:30.001Z,20.08
2023-03-22T10:47:30.124Z,20.4
2023-03-22T10:48:30.344Z,20.24
2023-03-22T10:49:30.381Z,19.28
2023-03-22T10:50:30.496Z,19.2
2023-03-22T10:51:30.585Z,19.52
2023-03-22T10:52:30.742Z,20.64
2023-03-22T10:53:30.892Z,20.48
2023-03-22T10:54:30.988Z,19.92
2023-03-22T10:55:31.151Z,20.4
2023-03-22T10:56:31.238Z,21.52
2023-03-22T10:57:31.391Z,22.64
2023-03-22T10:58:31.505Z,23.44
2023-03-22T10:59:31.640Z,24.08
2023-03-22T11:00:31.814Z,23.6
2023-03-22T11:01:32.030Z,22.72
2023-03-22T11:02:32.202Z,21.44
2023-03-22T11:03:32.268Z,20.64
2023-03-22T11:04:32.354Z,20.32
2023-03-22T11:05:32.500Z,21.12
2023-03-22T11:06:32.602Z,22.24
2023-03-22T11:07:32.753Z,22.72
2023-03-22T11:08:32.905Z,21.28
2023-03-22T11:09:33.015Z,21.92
2023-03-22T11:10:33.248Z,21.68
2023-03-22T11:11:33.260Z,22.32
2023-03-22T11:12:33.419Z,22
2023-03-22T11:13:33.524Z,22.4
2023-03-22T11:14:33.625Z,22.24
2023-03-22T11:15:33.768Z,23.28
2023-03-22T11:16:33.925Z,22.72
2023-03-22T11:17:34.068Z,20.88
2023-03-22T11:18:34.228Z,21.12
2023-03-22T11:19:34.370Z,21.68
2023-03-22T11:20:34.560Z,20.64
2023-03-22T11:21:34.682Z,21.12
2023-03-22T11:22:34.833Z,22.08
2023-03-22T11:23:35.004Z,21.68
2023-03-22T11:24:35.134Z,21.68
2023-03-22T11:25:35.304Z,21.28
2023-03-22T11:26:35.940Z,22.88
2023-03-22T11:27:35.481Z,22.08
2023-03-22T11:28:35.587Z,22.48
2023-03-22T11:29:35.690Z,22.48
2023-03-22T11:30:35.854Z,23.28
2023-03-22T11:31:36.293Z,22.4
2023-03-22T11:32:36.456Z,21.92
2023-03-22T11:33:36.543Z,22.4
2023-03-22T11:34:36.694Z,22.4
2023-03-22T11:35:36.894Z,23.68
2023-03-22T11:36:36.999Z,23.6
2023-03-22T11:37:37.147Z,21.28
2023-03-22T11:38:37.338Z,21.52
2023-03-22T11:39:37.456Z,23.84
2023-03-22T11:40:37.721Z,21.04
2023-03-22T11:41:37.730Z,20.8
2023-03-22T11:42:37.855Z,23.12
2023-03-22T11:43:38.019Z,22
2023-03-22T11:44:38.414Z,20.32
2023-03-22T11:45:38.321Z,19.6
2023-03-22T11:46:38.584Z,19.04
2023-03-22T11:47:38.622Z,19.2
2023-03-22T11:48:38.864Z,19.44
2023-03-22T11:49:38.868Z,20.64
2023-03-22T11:50:39.772Z,20.24
2023-03-22T11:51:39.172Z,20.72
2023-03-22T11:52:39.831Z,20.72
2023-03-22T11:53:39.428Z,20.8
2023-03-22T11:54:39.589Z,21.04
2023-03-22T11:55:39.943Z,20.48
2023-03-22T11:56:39.880Z,20.72
2023-03-22T11:57:40.496Z,20.72
2023-03-22T11:58:40.138Z,20
2023-03-22T11:59:40.768Z,20.32
2023-03-22T12:00:40.444Z,20
2023-03-22T12:01:40.596Z,20.48
2023-03-22T12:02:41.250Z,20.72
2023-03-22T12:03:41.002Z,21.2
2023-03-22T12:04:41.064Z,19.92
2023-03-22T12:05:41.294Z,21.2
2023-03-22T12:06:41.292Z,20.8
2023-03-22T12:07:42.049Z,22.08
2023-03-22T12:08:41.603Z,21.44
2023-03-22T12:09:42.304Z,21.84
2023-03-22T12:10:41.863Z,20.24
2023-03-22T12:11:42.014Z,19.76
2023-03-22T12:12:42.115Z,21.92
2023-03-22T12:13:42.219Z,20.4
2023-03-22T12:14:42.361Z,21.04
2023-03-22T12:15:42.708Z,22.24
2023-03-22T12:16:42.673Z,22.72
2023-03-22T12:17:42.767Z,22.32
2023-03-22T12:18:42.919Z,22.64
2023-03-22T12:19:43.064Z,22
2023-03-22T12:20:43.536Z,23.12
2023-03-22T12:21:43.326Z,22.72
2023-03-22T12:22:43.492Z,22.8
2023-03-22T12:23:43.570Z,22.24
2023-03-22T12:24:43.719Z,20.8
2023-03-22T12:25:43.879Z,20.24
2023-03-22T12:26:44.026Z,19.68
2023-03-22T12:27:44.175Z,19.44
2023-03-22T12:28:44.333Z,19.52
2023-03-22T12:29:44.482Z,19.92
2023-03-22T12:30:44.638Z,19.12
2023-03-22T12:31:44.841Z,18.72
2023-03-22T12:32:44.972Z,18.64
2023-03-22T12:33:45.094Z,18.88
2023-03-22T12:34:45.253Z,19.68
2023-03-22T12:35:45.352Z,18.8
2023-03-22T12:36:45.493Z,18.08
2023-03-22T12:37:45.663Z,18.4
2023-03-22T12:38:45.819Z,19.52
2023-03-22T12:39:45.958Z,20.24
2023-03-22T12:40:46.556Z,19.76
2023-03-22T12:41:46.257Z,18.64
2023-03-22T12:42:51.071Z,18.24
2023-03-22T12:43:46.857Z,18.88
2023-03-22T12:44:52.730Z,18.48
2023-03-22T12:45:46.712Z,18.48
2023-03-22T12:46:46.877Z,18.64
2023-03-22T12:47:47.058Z,18.4
2023-03-22T12:48:47.176Z,18.24
2023-03-22T12:49:47.315Z,18.24
2023-03-22T12:50:47.463Z,18.64
2023-03-22T12:51:47.614Z,18
2023-03-22T12:52:47.804Z,18
2023-03-22T12:53:47.931Z,17.6
2023-03-22T12:54:48.036Z,18
2023-03-22T12:55:48.174Z,17.76
2023-03-22T12:56:48.325Z,17.76
2023-03-22T12:57:48.475Z,18
2023-03-22T12:58:48.584Z,18.4
2023-03-22T12:59:48.731Z,18.64
2023-03-22T13:00:48.941Z,18.4
2023-03-22T13:01:48.983Z,18.08
2023-03-22T13:02:49.173Z,18.32
2023-03-22T13:03:49.373Z,18.24
2023-03-22T13:04:49.437Z,18.48
2023-03-22T13:05:49.594Z,18.72
2023-03-22T13:06:49.742Z,18.72
2023-03-22T13:07:49.887Z,19.52
2023-03-22T13:08:49.997Z,20.8
2023-03-22T13:09:50.150Z,19.76
2023-03-22T13:10:50.291Z,20
2023-03-22T13:11:51.707Z,20.8
2023-03-22T13:12:50.604Z,20.8
2023-03-22T13:13:50.768Z,21.44